MacKay, Idaho
Current Conditions -  °F | °C
As of 10:47 AM on Monday 26 Jan 2015 (Local Time) from KSUN Reporting Station
Clear Clear  
Wind Chill: 34°   Ceiling: Unl
Heat Index: 39°   Visibility: 10mi
Dew Point: 27°   Wind: 7mph
Humidity: 61%   Direction: 320°NW
Pressure: 30.37"   Gusts: NA
Location:  43.91°N, 113.61°W
Report Text: KSUN 261747Z 32006KT 10SM SKC 04/M03 A3037
Loading
Personal Weather Stations






























Interactive Weather Map New forecast layout! Learn more

10-Day Weather Forecast

Advertisements
Track Severe Weather on mobile